createdAt,value
2023-03-11T00:00:26.762Z,95667.38
2023-03-11T00:02:57.037Z,95677.88
2023-03-11T00:05:27.651Z,95667.38
2023-03-11T00:07:56.875Z,95671.94
2023-03-11T00:10:29.678Z,95675.19
2023-03-11T00:12:58.842Z,95673.56
2023-03-11T00:15:29.433Z,95671.94
2023-03-11T00:17:59.100Z,95674.38
2023-03-11T00:20:29.758Z,95676.25
2023-03-11T00:22:58.592Z,95679.75
2023-03-11T00:25:29.690Z,95680.78
2023-03-11T00:27:58.961Z,95669.25
2023-03-11T00:30:29.282Z,95669.25
2023-03-11T00:32:58.970Z,95666.56
2023-03-11T00:35:29.345Z,95659.31
2023-03-11T00:37:59.370Z,95657.69
2023-03-11T00:40:29.629Z,95640.53
2023-03-11T00:42:58.386Z,95644.28
2023-03-11T00:45:28.519Z,95638.91
2023-03-11T00:47:57.362Z,95639.72
2023-03-11T00:50:27.635Z,95639.72
2023-03-11T00:52:56.241Z,95650.44
2023-03-11T00:55:26.558Z,95650.44
2023-03-11T00:57:55.605Z,95649.63
2023-03-11T01:00:26.439Z,95655.00
2023-03-11T01:02:58.564Z,95654.19
2023-03-11T01:05:30.254Z,95654.19
2023-03-11T01:08:02.276Z,95649.63
2023-03-11T01:10:32.858Z,95642.66
2023-03-11T01:13:03.485Z,95653.13
2023-03-11T01:15:35.323Z,95648.84
2023-03-11T01:18:08.223Z,95657.69
2023-03-11T01:20:38.938Z,95660.38
2023-03-11T01:23:10.725Z,95659.56
2023-03-11T01:25:43.396Z,95659.56
2023-03-11T01:28:16.679Z,95660.38
2023-03-11T01:30:55.146Z,95654.19
2023-03-11T01:33:31.691Z,95664.13
2023-03-11T01:36:03.850Z,95669.50
2023-03-11T01:38:41.734Z,95670.31
2023-03-11T01:41:15.680Z,95658.75
2023-03-11T01:43:57.482Z,95665.97
2023-03-11T01:46:39.194Z,95663.28
2023-03-11T01:49:16.047Z,95663.06
2023-03-11T01:51:50.365Z,95661.44
2023-03-11T01:54:28.743Z,95660.59
2023-03-11T01:56:59.865Z,95657.13
2023-03-11T01:59:35.048Z,95656.06
2023-03-11T02:02:10.805Z,95654.44
2023-03-11T02:04:44.075Z,95658.75
2023-03-11T02:07:16.012Z,95651.75
2023-03-11T02:09:47.531Z,95653.38
2023-03-11T02:12:19.259Z,95657.13
2023-03-11T02:14:51.615Z,95647.19
2023-03-11T02:17:23.029Z,95641.81
2023-03-11T02:20:24.214Z,95646.38
2023-03-11T02:22:57.628Z,95646.38
2023-03-11T02:25:36.604Z,95656.31
2023-03-11T02:28:10.415Z,95654.44
2023-03-11T02:30:43.170Z,95649.06
2023-03-11T02:33:15.093Z,95652.81
2023-03-11T02:35:46.288Z,95649.06
2023-03-11T02:38:16.148Z,95647.44
2023-03-11T02:40:54.556Z,95650.13
2023-03-11T02:43:37.795Z,95647.44
2023-03-11T02:46:10.391Z,95647.44
2023-03-11T02:48:46.520Z,95658.19
2023-03-11T02:51:18.456Z,95666.22
2023-03-11T02:53:51.537Z,95665.16
2023-03-11T02:56:22.339Z,95665.16
2023-03-11T02:58:55.059Z,95660.06
2023-03-11T03:01:27.645Z,95672.66
2023-03-11T03:04:01.442Z,95664.63
2023-03-11T03:06:34.895Z,95682.34
2023-03-11T03:09:06.929Z,95673.47
2023-03-11T03:11:38.405Z,95669.97
2023-03-11T03:14:12.390Z,95670.78
2023-03-11T03:16:43.495Z,95674.28
2023-03-11T03:19:14.859Z,95671.59
2023-03-11T03:21:46.842Z,95661.94
2023-03-11T03:24:18.777Z,95682.34
2023-03-11T03:26:53.614Z,95674.28
2023-03-11T03:29:24.090Z,95679.88
2023-03-11T03:31:52.829Z,95679.88
2023-03-11T03:34:21.394Z,95686.09
2023-03-11T03:36:50.030Z,95682.34
2023-03-11T03:39:20.088Z,95686.09
2023-03-11T03:41:48.780Z,95681.53
2023-03-11T03:44:17.368Z,95686.09
2023-03-11T03:46:47.626Z,95692.28
2023-03-11T03:49:16.199Z,95679.66
2023-03-11T03:51:44.814Z,95692.28
2023-03-11T03:54:13.499Z,95696.81
2023-03-11T03:56:42.393Z,95685.25
2023-03-11T03:59:10.920Z,95687.13
2023-03-11T04:01:39.528Z,95681.75
2023-03-11T04:04:09.411Z,95696.00
2023-03-11T04:06:37.934Z,95687.94
2023-03-11T04:09:06.514Z,95694.38
2023-03-11T04:11:35.302Z,95689.81
2023-03-11T04:14:03.868Z,95684.44
2023-03-11T04:16:32.617Z,95679.06
2023-03-11T04:19:01.172Z,95690.88
2023-03-11T04:21:31.101Z,95689.81
2023-03-11T04:23:59.712Z,95693.56
2023-03-11T04:26:28.544Z,95684.44
2023-03-11T04:28:57.257Z,95682.81
2023-03-11T04:31:25.905Z,95689.00
2023-03-11T04:33:54.677Z,95690.88
2023-03-11T04:36:23.279Z,95676.66
2023-03-11T04:38:53.165Z,95688.19
2023-03-11T04:41:21.692Z,95689.22
2023-03-11T04:43:50.218Z,95687.38
2023-03-11T04:46:18.834Z,95692.75
2023-03-11T04:48:47.426Z,95694.59
2023-03-11T04:51:16.194Z,95689.22
2023-03-11T04:53:44.740Z,95699.97
2023-03-11T04:56:14.637Z,95698.13
2023-03-11T04:58:43.162Z,95699.16
2023-03-11T05:01:11.766Z,95701.03
2023-03-11T05:03:40.395Z,95705.34
2023-03-11T05:06:09.223Z,95703.72
2023-03-11T05:08:37.742Z,95704.53
2023-03-11T05:11:07.175Z,95702.91
2023-03-11T05:13:37.130Z,95701.03
2023-03-11T05:16:06.914Z,95705.34
2023-03-11T05:18:35.485Z,95694.84
2023-03-11T05:21:03.992Z,95703.72
2023-03-11T05:23:32.539Z,95706.19
2023-03-11T05:26:01.220Z,95712.59
2023-03-11T05:28:29.978Z,95709.91
2023-03-11T05:30:59.913Z,95724.38
2023-03-11T05:33:32.368Z,95730.34
2023-03-11T05:36:06.992Z,95738.63
2023-03-11T05:38:35.917Z,95727.06
2023-03-11T05:41:04.563Z,95752.84
2023-03-11T05:43:33.193Z,95762.78
2023-03-11T05:46:03.183Z,95776.19
2023-03-11T05:48:31.793Z,95782.38
2023-03-11T05:51:00.527Z,95779.94
2023-03-11T05:53:29.161Z,95786.94
2023-03-11T05:55:58.501Z,95790.69
2023-03-11T05:58:27.700Z,95795.00
2023-03-11T06:00:56.404Z,95798.47
2023-03-11T06:03:26.566Z,95804.66
2023-03-11T06:05:55.757Z,95804.91
2023-03-11T06:08:24.865Z,95812.16
2023-03-11T06:10:53.491Z,95811.09
2023-03-11T06:13:22.118Z,95818.66
2023-03-11T06:15:50.825Z,95831.50
2023-03-11T06:18:19.610Z,95827.78
2023-03-11T06:20:51.559Z,95829.06
2023-03-11T06:23:20.388Z,95819.16
2023-03-11T06:25:57.636Z,95847.06
2023-03-11T06:28:26.664Z,95852.44
2023-03-11T06:30:56.964Z,95856.72
2023-03-11T06:33:25.758Z,95854.84
2023-03-11T06:36:02.709Z,95871.22
2023-03-11T06:38:31.370Z,95859.41
2023-03-11T06:41:01.434Z,95865.00
2023-03-11T06:43:29.963Z,95861.28
2023-03-11T06:45:58.746Z,95876.59
2023-03-11T06:48:27.560Z,95877.41
2023-03-11T06:50:56.707Z,95872.84
2023-03-11T06:53:26.909Z,95882.75
2023-03-11T06:56:02.813Z,95894.31
2023-03-11T06:58:31.515Z,95887.31
2023-03-11T07:01:03.308Z,95893.50
2023-03-11T07:03:32.099Z,95890.00
2023-03-11T07:06:00.790Z,95904.25
2023-03-11T07:08:31.192Z,95909.59
2023-03-11T07:11:05.446Z,95915.78
2023-03-11T07:13:34.111Z,95921.16
2023-03-11T07:16:04.362Z,95925.72
2023-03-11T07:18:33.192Z,95923.84
2023-03-11T07:21:03.054Z,95926.53
2023-03-11T07:23:33.010Z,95919.53
2023-03-11T07:26:01.734Z,95919.53
2023-03-11T07:28:30.787Z,95925.72
2023-03-11T07:30:59.741Z,95924.06
2023-03-11T07:33:28.817Z,95923.03
2023-03-11T07:35:57.392Z,95931.09
2023-03-11T07:38:26.134Z,95936.47
2023-03-11T07:41:00.985Z,95940.16
2023-03-11T07:43:29.612Z,95941.81
2023-03-11T07:46:06.468Z,95942.63
2023-03-11T07:48:35.779Z,95955.25
2023-03-11T07:51:05.583Z,95957.47
2023-03-11T07:53:34.321Z,95970.66
2023-03-11T07:56:04.516Z,95966.31
2023-03-11T07:58:33.204Z,95974.97
2023-03-11T08:01:07.126Z,95969.00
2023-03-11T08:03:35.910Z,95968.19
2023-03-11T08:06:04.952Z,95988.41
2023-03-11T08:08:33.507Z,95990.03
2023-03-11T08:11:07.260Z,95999.13
2023-03-11T08:13:35.860Z,96009.63
2023-03-11T08:16:05.722Z,96005.56
2023-03-11T08:18:34.840Z,96012.91
2023-03-11T08:21:06.460Z,96005.88
2023-03-11T08:23:35.143Z,96016.06
2023-03-11T08:26:06.639Z,96007.19
2023-03-11T08:28:35.472Z,96015.00
2023-03-11T08:31:04.103Z,96011.63
2023-03-11T08:33:32.687Z,96014.06
2023-03-11T08:36:01.767Z,96008.69
2023-03-11T08:38:30.531Z,96003.69
2023-03-11T08:40:59.170Z,96028.06
2023-03-11T08:43:29.203Z,96030.75
2023-03-11T08:45:57.992Z,96025.38
2023-03-11T08:48:26.961Z,96036.47
2023-03-11T08:50:55.590Z,96044.09
2023-03-11T08:53:24.320Z,96043.25
2023-03-11T08:55:53.244Z,96045.72
2023-03-11T08:58:22.026Z,96051.91
2023-03-11T09:00:51.931Z,96050.28
2023-03-11T09:03:20.708Z,96059.75
2023-03-11T09:05:49.360Z,96082.50
2023-03-11T09:08:18.019Z,96064.59
2023-03-11T09:10:46.602Z,96086.84
2023-03-11T09:13:15.224Z,96089.97
2023-03-11T09:15:43.842Z,96068.22
2023-03-11T09:18:14.850Z,96078.88
2023-03-11T09:20:43.591Z,96093.63
2023-03-11T09:23:14.357Z,96093.22
2023-03-11T09:25:43.012Z,96090.81
2023-03-11T09:28:11.591Z,96093.28
2023-03-11T09:30:40.175Z,96095.44
2023-03-11T09:33:08.893Z,96106.69
2023-03-11T09:35:39.780Z,96106.44
2023-03-11T09:38:08.430Z,96106.81
2023-03-11T09:40:48.208Z,96110.34
2023-03-11T09:43:23.516Z,96116.16
2023-03-11T09:45:56.416Z,96117.53
2023-03-11T09:48:26.835Z,96125.84
2023-03-11T09:50:59.213Z,96119.88
2023-03-11T09:53:33.918Z,96127.25
2023-03-11T09:56:04.295Z,96129.47
2023-03-11T09:58:39.240Z,96126.56
2023-03-11T10:01:15.870Z,96138.13
2023-03-11T10:03:44.485Z,96145.94
2023-03-11T10:06:23.185Z,96146.31
2023-03-11T10:08:58.391Z,96144.44
2023-03-11T10:11:55.761Z,96164.06
2023-03-11T10:14:47.797Z,96159.50
2023-03-11T10:17:24.205Z,96172.69
2023-03-11T10:19:56.700Z,96178.06
2023-03-11T10:22:29.195Z,96167.09
2023-03-11T10:25:07.205Z,96171.66
2023-03-11T10:27:41.955Z,96181.56
2023-03-11T10:30:16.695Z,96195.00
2023-03-11T10:32:47.817Z,96200.38
2023-03-11T10:35:20.976Z,96207.34
2023-03-11T10:37:54.718Z,96211.25
2023-03-11T10:40:29.866Z,96208.78
2023-03-11T10:43:00.539Z,96233.78
2023-03-11T10:45:41.391Z,96232.94
2023-03-11T10:48:12.415Z,96234.81
2023-03-11T10:50:48.909Z,96250.72
2023-03-11T10:53:19.950Z,96247.22
2023-03-11T10:55:50.163Z,96253.00
2023-03-11T10:58:21.320Z,96265.16
2023-03-11T11:01:02.517Z,96265.41
2023-03-11T11:03:31.320Z,96261.06
2023-03-11T11:06:03.336Z,96275.09
2023-03-11T11:08:34.008Z,96288.75
2023-03-11T11:11:03.566Z,96293.28
2023-03-11T11:13:34.580Z,96304.25
2023-03-11T11:16:05.114Z,96316.41
2023-03-11T11:18:35.811Z,96309.38
2023-03-11T11:21:06.770Z,96322.59
2023-03-11T11:23:40.276Z,96327.97
2023-03-11T11:26:18.787Z,96334.41
2023-03-11T11:28:47.863Z,96348.63
2023-03-11T11:31:25.374Z,96355.63
2023-03-11T11:33:54.934Z,96365.56
2023-03-11T11:36:26.867Z,96362.88
2023-03-11T11:38:56.988Z,96385.97
2023-03-11T11:41:26.156Z,96384.16
2023-03-11T11:43:55.495Z,96397.56
2023-03-11T11:46:28.182Z,96393.22
2023-03-11T11:49:05.419Z,96407.84
2023-03-11T11:51:36.533Z,96397.56
2023-03-11T11:54:15.404Z,96415.06
2023-03-11T11:56:44.071Z,96425.59
2023-03-11T11:59:18.915Z,96422.09
2023-03-11T12:01:57.128Z,96438.66
2023-03-11T12:04:49.472Z,96436.56
2023-03-11T12:07:42.340Z,96440.09
2023-03-11T12:10:24.149Z,96457.00
2023-03-11T12:13:26.956Z,96478.69
2023-03-11T12:15:57.991Z,96482.19
2023-03-11T12:18:29.627Z,96484.31
2023-03-11T12:20:59.267Z,96483.50
2023-03-11T12:23:39.102Z,96493.38
2023-03-11T12:26:16.648Z,96513.03
2023-03-11T12:28:49.196Z,96510.34
2023-03-11T12:31:17.909Z,96509.91
2023-03-11T12:33:47.507Z,96515.03
2023-03-11T12:36:25.235Z,96525.41
2023-03-11T12:38:54.096Z,96531.38
2023-03-11T12:41:32.403Z,96524.78
2023-03-11T12:44:06.323Z,96547.31
2023-03-11T12:47:03.950Z,96548.97
2023-03-11T12:49:33.023Z,96555.16
2023-03-11T12:52:18.270Z,96560.50
2023-03-11T12:54:47.578Z,96551.88
2023-03-11T12:57:45.598Z,96572.31
2023-03-11T13:00:29.239Z,96577.06
2023-03-11T13:03:30.814Z,96581.19
2023-03-11T13:06:05.617Z,96598.34
2023-03-11T13:08:36.551Z,96617.97
2023-03-11T13:11:35.204Z,96621.47
2023-03-11T13:14:32.049Z,96625.41
2023-03-11T13:17:27.822Z,96634.69
2023-03-11T13:19:56.984Z,96632.84
2023-03-11T13:23:21.821Z,96659.28
2023-03-11T13:26:24.440Z,96659.28
2023-03-11T13:29:26.225Z,96671.03
2023-03-11T13:32:18.748Z,96676.41
2023-03-11T13:34:49.740Z,96689.81
2023-03-11T13:37:28.221Z,96698.91
2023-03-11T13:40:14.076Z,96698.06
2023-03-11T13:42:46.371Z,96700.75
2023-03-11T13:45:28.741Z,96709.63
2023-03-11T13:47:59.989Z,96699.94
2023-03-11T13:50:31.162Z,96719.34
2023-03-11T13:53:00.641Z,96724.94
2023-03-11T13:55:33.464Z,96734.84
2023-03-11T13:58:02.080Z,96735.91
2023-03-11T14:00:34.064Z,96738.59
2023-03-11T14:03:04.553Z,96752.00
2023-03-11T14:05:33.722Z,96754.69
2023-03-11T14:08:13.788Z,96766.25
2023-03-11T14:10:42.411Z,96770.81
2023-03-11T14:13:18.483Z,96770.81
2023-03-11T14:15:58.447Z,96767.28
2023-03-11T14:18:30.075Z,96775.34
2023-03-11T14:20:58.923Z,96780.94
2023-03-11T14:23:30.985Z,96791.44
2023-03-11T14:26:01.761Z,96815.06
2023-03-11T14:28:30.515Z,96806.28
2023-03-11T14:31:01.772Z,96829.00
2023-03-11T14:33:30.599Z,96806.88
2023-03-11T14:36:00.518Z,96810.56
2023-03-11T14:38:30.933Z,96822.94
2023-03-11T14:41:00.560Z,96823.94
2023-03-11T14:43:30.051Z,96823.31
2023-03-11T14:46:00.258Z,96835.28
2023-03-11T14:48:30.576Z,96845.81
2023-03-11T14:50:59.916Z,96843.94
2023-03-11T14:53:29.912Z,96851.78
2023-03-11T14:55:59.702Z,96852.63
2023-03-11T14:58:34.757Z,96856.94
2023-03-11T15:01:07.464Z,96872.00
2023-03-11T15:03:37.315Z,96878.22
2023-03-11T15:06:08.073Z,96885.44
2023-03-11T15:08:44.495Z,96882.75
2023-03-11T15:11:22.533Z,96887.53
2023-03-11T15:13:51.770Z,96898.03
2023-03-11T15:16:31.371Z,96907.97
2023-03-11T15:19:02.107Z,96896.41
2023-03-11T15:21:31.344Z,96906.09
2023-03-11T15:24:05.144Z,96910.47
2023-03-11T15:26:35.139Z,96914.38
2023-03-11T15:29:06.998Z,96909.00
2023-03-11T15:31:37.984Z,96920.78
2023-03-11T15:34:31.688Z,96918.09
2023-03-11T15:37:20.616Z,96928.41
2023-03-11T15:39:52.225Z,96940.38
2023-03-11T15:42:24.488Z,96933.78
2023-03-11T15:45:19.441Z,96938.56
2023-03-11T15:47:50.823Z,96960.22
2023-03-11T15:50:40.158Z,96951.75
2023-03-11T15:53:15.689Z,96962.50
2023-03-11T15:55:44.367Z,96969.72
2023-03-11T15:58:15.299Z,96974.06
2023-03-11T16:00:47.581Z,96983.97
2023-03-11T16:03:17.645Z,96989.16
2023-03-11T16:05:46.630Z,96988.34
2023-03-11T16:08:15.351Z,97003.81
2023-03-11T16:10:43.978Z,96999.28
2023-03-11T16:13:13.291Z,97012.91
2023-03-11T16:15:42.375Z,97018.06
2023-03-11T16:18:11.952Z,97018.88
2023-03-11T16:20:43.411Z,97028.81
2023-03-11T16:23:14.317Z,97022.63
2023-03-11T16:25:43.021Z,97039.56
2023-03-11T16:28:12.560Z,97043.06
2023-03-11T16:30:41.194Z,97044.09
2023-03-11T16:33:09.841Z,97051.13
2023-03-11T16:35:38.869Z,97058.34
2023-03-11T16:38:09.469Z,97060.84
2023-03-11T16:40:38.151Z,97064.53
2023-03-11T16:43:08.242Z,97069.91
2023-03-11T16:45:39.311Z,97080.66
2023-03-11T16:48:08.508Z,97088.94
2023-03-11T16:50:37.696Z,97091.41
2023-03-11T16:53:06.329Z,97098.00
2023-03-11T16:55:36.350Z,97106.69
2023-03-11T16:58:05.065Z,97109.56
2023-03-11T17:00:33.825Z,97124.03
2023-03-11T17:03:02.688Z,97124.03
2023-03-11T17:05:31.330Z,97131.28
2023-03-11T17:08:04.249Z,97135.41
2023-03-11T17:10:38.747Z,97155.03
2023-03-11T17:13:07.513Z,97155.03
2023-03-11T17:15:38.068Z,97162.06
2023-03-11T17:18:06.873Z,97160.41
2023-03-11T17:20:37.219Z,97169.69
2023-03-11T17:23:05.831Z,97174.25
2023-03-11T17:25:34.549Z,97179.41
2023-03-11T17:28:04.633Z,97185.63
2023-03-11T17:30:37.140Z,97197.38
2023-03-11T17:33:06.165Z,97201.72
2023-03-11T17:35:35.023Z,97208.94
2023-03-11T17:38:03.704Z,97210.81
2023-03-11T17:40:32.899Z,97211.84
2023-03-11T17:43:03.206Z,97208.94
2023-03-11T17:45:31.971Z,97224.22
2023-03-11T17:48:00.963Z,97220.72
2023-03-11T17:50:29.702Z,97214.53
2023-03-11T17:52:58.489Z,97241.38
2023-03-11T17:55:27.087Z,97242.22
2023-03-11T17:57:55.765Z,97257.50
2023-03-11T18:00:26.187Z,97253.13
2023-03-11T18:02:54.887Z,97255.00
2023-03-11T18:05:23.654Z,97270.09
2023-03-11T18:07:52.415Z,97270.28
2023-03-11T18:10:21.674Z,97273.63
2023-03-11T18:12:50.231Z,97278.16
2023-03-11T18:15:20.126Z,97288.06
2023-03-11T18:17:50.342Z,97286.22
2023-03-11T18:20:19.443Z,97290.53
2023-03-11T18:22:48.088Z,97295.91
2023-03-11T18:25:16.947Z,97297.16
2023-03-11T18:27:45.518Z,97307.06
2023-03-11T18:30:15.583Z,97309.75
2023-03-11T18:32:44.900Z,97310.38
2023-03-11T18:35:17.494Z,97315.94
2023-03-11T18:37:46.723Z,97319.66
2023-03-11T18:40:16.046Z,97322.34
2023-03-11T18:42:47.462Z,97315.94
2023-03-11T18:45:16.656Z,97334.75
2023-03-11T18:47:45.351Z,97340.13
2023-03-11T18:50:15.335Z,97343.84
2023-03-11T18:52:43.948Z,97340.13
2023-03-11T18:55:12.569Z,97351.69
2023-03-11T18:57:43.237Z,97356.63
2023-03-11T19:00:13.484Z,97357.06
2023-03-11T19:02:42.191Z,97358.72
2023-03-11T19:05:11.316Z,97358.50
2023-03-11T19:07:41.284Z,97365.75
2023-03-11T19:10:12.383Z,97369.47
2023-03-11T19:12:43.703Z,97363.25
2023-03-11T19:15:13.479Z,97364.91
2023-03-11T19:17:42.184Z,97370.69
2023-03-11T19:20:13.029Z,97378.53
2023-03-11T19:22:43.244Z,97387.63
2023-03-11T19:25:11.917Z,97394.66
2023-03-11T19:27:40.456Z,97397.56
2023-03-11T19:30:10.997Z,97401.06
2023-03-11T19:32:39.603Z,97398.56
2023-03-11T19:35:10.984Z,97402.06
2023-03-11T19:37:41.931Z,97408.28
2023-03-11T19:40:14.753Z,97413.66
2023-03-11T19:42:43.466Z,97418.19
2023-03-11T19:45:12.858Z,97414.66
2023-03-11T19:47:41.520Z,97416.53
2023-03-11T19:50:12.011Z,97419.22
2023-03-11T19:52:40.597Z,97425.63
2023-03-11T19:55:11.575Z,97419.44
2023-03-11T19:57:40.266Z,97422.94
2023-03-11T20:00:10.653Z,97431.00
2023-03-11T20:02:39.421Z,97432.84
2023-03-11T20:05:10.288Z,97434.69
2023-03-11T20:07:39.038Z,97432.00
2023-03-11T20:10:11.378Z,97438.22
2023-03-11T20:12:55.853Z,97441.75
2023-03-11T20:15:30.132Z,97440.06
2023-03-11T20:17:58.855Z,97430.34
2023-03-11T20:20:28.325Z,97442.56
2023-03-11T20:22:57.220Z,97440.91
2023-03-11T20:25:26.132Z,97444.44
2023-03-11T20:27:56.188Z,97447.09
2023-03-11T20:30:24.965Z,97451.66
2023-03-11T20:32:54.370Z,97453.50
2023-03-11T20:35:23.290Z,97452.47
2023-03-11T20:37:51.901Z,97455.78
2023-03-11T20:40:20.954Z,97455.78
2023-03-11T20:42:49.525Z,97462.81
2023-03-11T20:45:21.997Z,97461.16
2023-03-11T20:47:50.971Z,97456.63
2023-03-11T20:50:19.787Z,97461.16
2023-03-11T20:52:48.430Z,97464.69
2023-03-11T20:55:17.081Z,97468.59
2023-03-11T20:57:45.983Z,97472.28
2023-03-11T21:00:15.468Z,97472.28
2023-03-11T21:02:46.227Z,97470.63
2023-03-11T21:05:15.166Z,97474.16
2023-03-11T21:07:43.816Z,97473.31
2023-03-11T21:10:14.028Z,97480.56
2023-03-11T21:12:42.928Z,97471.84
2023-03-11T21:15:12.855Z,97486.94
2023-03-11T21:17:41.710Z,97485.09
2023-03-11T21:20:13.521Z,97494.81
2023-03-11T21:22:42.296Z,97490.47
2023-03-11T21:25:11.220Z,97496.66
2023-03-11T21:27:39.937Z,97495.84
2023-03-11T21:30:10.390Z,97497.50
2023-03-11T21:32:39.145Z,97495.84
2023-03-11T21:35:08.511Z,97504.91
2023-03-11T21:37:38.607Z,97501.22
2023-03-11T21:40:09.325Z,97503.03
2023-03-11T21:42:38.065Z,97495.00
2023-03-11T21:45:08.147Z,97504.09
2023-03-11T21:47:37.903Z,97499.53
2023-03-11T21:50:07.785Z,97497.88
2023-03-11T21:52:37.901Z,97508.81
2023-03-11T21:55:07.512Z,97512.31
2023-03-11T21:57:36.470Z,97512.31
2023-03-11T22:00:07.545Z,97531.75
2023-03-11T22:02:36.396Z,97529.72
2023-03-11T22:05:05.461Z,97534.06
2023-03-11T22:07:34.271Z,97530.97
2023-03-11T22:10:04.576Z,97538.22
2023-03-11T22:12:33.299Z,97527.69
2023-03-11T22:15:01.941Z,97536.75
2023-03-11T22:17:30.647Z,97533.03
2023-03-11T22:19:59.345Z,97542.09
2023-03-11T22:22:28.160Z,97542.09
2023-03-11T22:24:56.850Z,97539.44
2023-03-11T22:27:26.838Z,97544.78
2023-03-11T22:29:55.379Z,97545.84
2023-03-11T22:32:24.110Z,97545.84
2023-03-11T22:34:52.663Z,97556.56
2023-03-11T22:37:21.406Z,97552.25
2023-03-11T22:39:50.449Z,97558.44
2023-03-11T22:42:19.076Z,97551.19
2023-03-11T22:44:49.238Z,97553.88
2023-03-11T22:47:17.871Z,97554.94
2023-03-11T22:49:46.739Z,97555.94
2023-03-11T22:52:16.114Z,97555.94
2023-03-11T22:54:44.986Z,97557.78
2023-03-11T22:57:13.655Z,97553.25
2023-03-11T22:59:42.302Z,97547.88
2023-03-11T23:02:12.307Z,97552.41
2023-03-11T23:04:40.824Z,97558.63
2023-03-11T23:07:09.560Z,97558.81
2023-03-11T23:09:38.382Z,97557.78
2023-03-11T23:12:07.620Z,97547.88
2023-03-11T23:14:44.645Z,97548.91
2023-03-11T23:17:15.282Z,97553.25
2023-03-11T23:19:44.199Z,97553.25
2023-03-11T23:22:12.738Z,97553.25
2023-03-11T23:24:41.475Z,97547.06
2023-03-11T23:27:10.145Z,97554.06
2023-03-11T23:29:39.060Z,97554.06
2023-03-11T23:32:08.470Z,97562.13
2023-03-11T23:34:39.287Z,97553.25
2023-03-11T23:37:07.780Z,97564.81
2023-03-11T23:39:36.439Z,97567.50
2023-03-11T23:42:22.434Z,97569.34
2023-03-11T23:44:53.826Z,97573.91
2023-03-11T23:47:22.502Z,97573.91
2023-03-11T23:49:52.592Z,97575.75
2023-03-11T23:52:21.231Z,97585.47
2023-03-11T23:54:49.847Z,97577.63
2023-03-11T23:57:18.447Z,97575.75
2023-03-11T23:59:47.839Z,97587.31
